createdAt,value
2022-08-29T00:01:59.296Z,10.80
2022-08-29T00:04:25.989Z,9.33
2022-08-29T00:06:52.744Z,14.27
2022-08-29T00:09:19.206Z,9.63
2022-08-29T00:11:46.566Z,9.70
2022-08-29T00:14:21.013Z,12.07
2022-08-29T00:16:50.535Z,9.37
2022-08-29T00:19:17.246Z,13.50
2022-08-29T00:21:43.886Z,8.40
2022-08-29T00:24:10.695Z,10.23
2022-08-29T00:26:37.167Z,10.20
2022-08-29T00:29:04.265Z,9.93
2022-08-29T00:31:30.763Z,10.23
2022-08-29T00:33:57.699Z,9.50
2022-08-29T00:36:26.243Z,9.63
2022-08-29T00:38:58.398Z,11.33
2022-08-29T00:41:24.972Z,9.40
2022-08-29T00:43:51.717Z,12.30
2022-08-29T00:46:46.578Z,11.23
2022-08-29T00:49:40.054Z,11.80
2022-08-29T00:52:35.718Z,8.70
2022-08-29T00:55:11.337Z,9.27
2022-08-29T00:57:40.741Z,10.23
2022-08-29T01:00:08.822Z,9.93
2022-08-29T01:02:40.326Z,8.07
2022-08-29T01:05:13.302Z,10.60
2022-08-29T01:07:41.670Z,8.73
2022-08-29T01:10:13.406Z,14.07
2022-08-29T01:12:41.044Z,8.50
2022-08-29T01:15:10.770Z,10.23
2022-08-29T01:17:45.411Z,11.57
2022-08-29T01:20:24.234Z,8.67
2022-08-29T01:23:01.108Z,8.80
2022-08-29T01:25:33.481Z,8.57
2022-08-29T01:28:06.627Z,10.20
2022-08-29T01:30:33.615Z,13.37
2022-08-29T01:33:00.952Z,10.67
2022-08-29T01:35:30.175Z,9.93
2022-08-29T01:37:56.851Z,8.20
2022-08-29T01:40:28.989Z,9.70
2022-08-29T01:42:57.538Z,10.80
2022-08-29T01:45:24.222Z,11.27
2022-08-29T01:47:50.727Z,9.77
2022-08-29T01:50:17.313Z,8.10
2022-08-29T01:52:43.916Z,9.27
2022-08-29T01:55:11.096Z,10.90
2022-08-29T01:57:40.600Z,10.93
2022-08-29T02:00:09.643Z,9.87
2022-08-29T02:02:37.225Z,10.23
2022-08-29T02:05:05.773Z,14.27
2022-08-29T02:07:32.440Z,9.40
2022-08-29T02:09:59.630Z,11.13
2022-08-29T02:12:26.227Z,11.57
2022-08-29T02:14:52.983Z,8.57
2022-08-29T02:17:19.889Z,11.30
2022-08-29T02:19:46.497Z,10.83
2022-08-29T02:22:14.067Z,13.87
2022-08-29T02:24:41.027Z,9.57
2022-08-29T02:27:08.775Z,8.80
2022-08-29T02:29:38.390Z,10.43
2022-08-29T02:32:08.420Z,11.10
2022-08-29T02:34:35.454Z,11.40
2022-08-29T02:37:02.693Z,13.07
2022-08-29T02:39:29.572Z,10.33
2022-08-29T02:41:56.703Z,13.00
2022-08-29T02:44:23.404Z,9.97
2022-08-29T02:46:50.262Z,12.17
2022-08-29T02:49:16.942Z,10.50
2022-08-29T02:51:45.035Z,12.53
2022-08-29T02:54:12.553Z,9.70
2022-08-29T02:56:40.009Z,10.50
2022-08-29T02:59:08.336Z,7.47
2022-08-29T03:01:38.416Z,9.37
2022-08-29T03:04:05.583Z,12.63
2022-08-29T03:06:32.050Z,10.10
2022-08-29T03:08:58.505Z,11.03
2022-08-29T03:11:25.085Z,12.33
2022-08-29T03:13:52.042Z,13.20
2022-08-29T03:16:24.182Z,10.50
2022-08-29T03:18:50.829Z,9.80
2022-08-29T03:21:22.476Z,8.50
2022-08-29T03:23:51.692Z,9.27
2022-08-29T03:26:19.248Z,11.10
2022-08-29T03:28:45.889Z,12.67
2022-08-29T03:31:13.420Z,11.23
2022-08-29T03:33:39.997Z,10.70
2022-08-29T03:36:14.314Z,10.33
2022-08-29T03:38:43.531Z,8.70
2022-08-29T03:41:10.740Z,9.53
2022-08-29T03:43:37.506Z,7.53
2022-08-29T03:46:04.275Z,11.27
2022-08-29T03:48:30.953Z,15.90
2022-08-29T03:50:57.860Z,12.03
2022-08-29T03:53:24.363Z,12.17
2022-08-29T03:55:50.991Z,10.90
2022-08-29T03:58:17.999Z,12.73
2022-08-29T04:00:46.759Z,12.63
2022-08-29T04:03:13.691Z,10.03
2022-08-29T04:05:40.854Z,10.43
2022-08-29T04:08:08.486Z,10.30
2022-08-29T04:10:38.199Z,9.27
2022-08-29T04:13:06.320Z,9.20
2022-08-29T04:15:33.396Z,8.63
2022-08-29T04:18:02.393Z,11.20
2022-08-29T04:20:32.841Z,10.23
2022-08-29T04:22:59.662Z,8.93
2022-08-29T04:25:27.962Z,12.27
2022-08-29T04:27:55.557Z,11.53
2022-08-29T04:30:25.185Z,13.57
2022-08-29T04:32:52.608Z,9.87
2022-08-29T04:35:19.733Z,8.13
2022-08-29T04:37:46.810Z,16.33
2022-08-29T04:40:16.190Z,13.00
2022-08-29T04:42:43.623Z,12.30
2022-08-29T04:45:12.554Z,12.53
2022-08-29T04:47:39.896Z,9.43
2022-08-29T04:50:07.881Z,12.67
2022-08-29T04:52:34.394Z,8.83
2022-08-29T04:55:01.021Z,11.53
2022-08-29T04:57:27.573Z,10.83
2022-08-29T04:59:58.856Z,9.70
2022-08-29T05:02:27.736Z,10.90
2022-08-29T05:04:56.454Z,9.67
2022-08-29T05:07:26.031Z,11.20
2022-08-29T05:09:58.730Z,11.20
2022-08-29T05:12:26.117Z,8.80
2022-08-29T05:14:54.090Z,11.43
2022-08-29T05:17:21.648Z,11.03
2022-08-29T05:19:49.180Z,12.70
2022-08-29T05:22:20.033Z,11.40
2022-08-29T05:24:47.543Z,12.80
2022-08-29T05:27:16.928Z,9.47
2022-08-29T05:29:46.698Z,9.27
2022-08-29T05:32:18.743Z,12.73
2022-08-29T05:34:46.512Z,12.87
2022-08-29T05:37:16.004Z,12.00
2022-08-29T05:39:43.007Z,11.60
2022-08-29T05:42:12.111Z,15.67
2022-08-29T05:44:40.064Z,12.53
2022-08-29T05:47:09.809Z,14.47
2022-08-29T05:49:37.967Z,10.10
2022-08-29T05:52:05.884Z,9.60
2022-08-29T05:54:34.349Z,10.37
2022-08-29T05:57:01.069Z,10.50
2022-08-29T05:59:27.579Z,9.80
2022-08-29T06:01:54.156Z,13.00
2022-08-29T06:04:20.823Z,12.70
2022-08-29T06:06:47.392Z,15.83
2022-08-29T06:09:14.262Z,12.03
2022-08-29T06:11:40.998Z,7.53
2022-08-29T06:14:07.612Z,14.03
2022-08-29T06:16:34.255Z,13.63
2022-08-29T06:19:01.397Z,11.03
2022-08-29T06:21:27.938Z,12.60
2022-08-29T06:23:54.610Z,9.73
2022-08-29T06:26:21.116Z,13.23
2022-08-29T06:28:47.705Z,7.47
2022-08-29T06:31:22.788Z,10.93
2022-08-29T06:33:55.062Z,10.63
2022-08-29T06:36:21.727Z,9.30
2022-08-29T06:38:48.190Z,10.53
2022-08-29T06:41:16.843Z,11.30
2022-08-29T06:43:44.163Z,8.47
2022-08-29T06:46:32.661Z,15.70
2022-08-29T06:49:01.746Z,11.53
2022-08-29T06:51:32.948Z,9.70
2022-08-29T06:54:00.770Z,14.57
2022-08-29T06:56:28.810Z,13.67
2022-08-29T06:58:56.175Z,13.40
2022-08-29T07:01:24.009Z,15.83
2022-08-29T07:03:53.841Z,13.57
2022-08-29T07:06:20.580Z,16.00
2022-08-29T07:08:55.838Z,11.43
2022-08-29T07:11:24.195Z,13.50
2022-08-29T07:13:50.754Z,16.40
2022-08-29T07:16:18.840Z,11.30
2022-08-29T07:18:46.772Z,15.30
2022-08-29T07:21:20.298Z,14.50
2022-08-29T07:23:48.146Z,11.87
2022-08-29T07:26:38.666Z,9.67
2022-08-29T07:29:10.123Z,15.27
2022-08-29T07:31:39.156Z,12.40
2022-08-29T07:34:06.486Z,13.23
2022-08-29T07:36:34.372Z,16.43
2022-08-29T07:39:02.375Z,13.37
2022-08-29T07:41:30.288Z,10.83
2022-08-29T07:43:57.721Z,15.37
2022-08-29T07:46:25.556Z,13.37
2022-08-29T07:48:52.822Z,18.87
2022-08-29T07:51:22.926Z,14.10
2022-08-29T07:53:50.661Z,16.00
2022-08-29T07:56:43.104Z,14.70
2022-08-29T07:59:10.297Z,16.70
2022-08-29T08:01:37.025Z,17.20
2022-08-29T08:04:04.389Z,15.50
2022-08-29T08:06:31.020Z,14.63
2022-08-29T08:09:03.354Z,20.80
2022-08-29T08:11:29.856Z,16.77
2022-08-29T08:13:57.542Z,17.83
2022-08-29T08:16:26.680Z,13.83
2022-08-29T08:18:53.984Z,16.77
2022-08-29T08:21:20.801Z,17.77
2022-08-29T08:23:47.348Z,15.80
2022-08-29T08:26:14.387Z,21.93
2022-08-29T08:28:42.204Z,18.13
2022-08-29T08:31:11.144Z,17.63
2022-08-29T08:33:42.263Z,20.53
2022-08-29T08:36:30.571Z,19.67
2022-08-29T08:38:59.511Z,18.93
2022-08-29T08:42:04.306Z,18.87
2022-08-29T08:44:50.669Z,21.00
2022-08-29T08:47:28.833Z,18.07
2022-08-29T08:50:12.313Z,21.30
2022-08-29T08:52:58.664Z,23.83
2022-08-29T08:55:49.289Z,19.20
2022-08-29T08:58:34.321Z,21.20
2022-08-29T09:01:23.277Z,24.83
2022-08-29T09:04:06.093Z,28.33
2022-08-29T09:06:55.080Z,20.43
2022-08-29T09:09:46.497Z,27.27
2022-08-29T09:12:25.165Z,22.80
2022-08-29T09:14:51.968Z,22.60
2022-08-29T09:17:27.761Z,25.93
2022-08-29T09:19:56.192Z,21.80
2022-08-29T09:22:27.416Z,23.30
2022-08-29T09:25:07.353Z,28.33
2022-08-29T09:27:35.758Z,22.73
2022-08-29T09:30:14.017Z,23.97
2022-08-29T09:32:57.517Z,26.27
2022-08-29T09:35:42.298Z,21.17
2022-08-29T09:38:18.121Z,22.43
2022-08-29T09:41:03.766Z,20.20
2022-08-29T09:43:44.160Z,19.77
2022-08-29T09:46:11.433Z,18.10
2022-08-29T09:48:44.518Z,21.07
2022-08-29T09:51:20.487Z,19.70
2022-08-29T09:53:47.066Z,19.20
2022-08-29T09:56:21.055Z,18.93
2022-08-29T09:59:02.223Z,21.60
2022-08-29T10:01:29.869Z,20.63
2022-08-29T10:04:00.705Z,20.97
2022-08-29T10:06:32.134Z,15.97
2022-08-29T10:09:05.971Z,14.63
2022-08-29T10:11:54.255Z,19.30
2022-08-29T10:14:36.194Z,14.30
2022-08-29T10:17:56.689Z,17.30
2022-08-29T10:20:29.052Z,20.13
2022-08-29T10:23:04.707Z,20.30
2022-08-29T10:25:41.481Z,14.13
2022-08-29T10:28:16.972Z,18.27
2022-08-29T10:30:57.079Z,16.87
2022-08-29T10:33:57.376Z,17.67
2022-08-29T10:36:45.255Z,15.17
2022-08-29T10:39:32.798Z,19.70
2022-08-29T10:42:07.739Z,14.17
2022-08-29T10:45:09.873Z,13.20
2022-08-29T10:48:00.483Z,20.20
2022-08-29T10:50:44.572Z,14.83
2022-08-29T10:53:31.418Z,14.07
2022-08-29T10:56:05.891Z,17.93
2022-08-29T10:58:45.632Z,13.17
2022-08-29T11:01:22.275Z,14.10
2022-08-29T11:03:52.996Z,13.60
2022-08-29T11:06:27.594Z,9.53
2022-08-29T11:09:24.895Z,13.23
2022-08-29T11:12:10.458Z,9.60
2022-08-29T11:14:52.122Z,11.37
2022-08-29T11:17:21.646Z,12.53
2022-08-29T11:19:55.213Z,13.27
2022-08-29T11:22:26.911Z,10.03
2022-08-29T11:25:13.173Z,10.37
2022-08-29T11:28:06.473Z,9.70
2022-08-29T11:30:56.730Z,9.27
2022-08-29T11:33:41.324Z,11.87
2022-08-29T11:36:39.303Z,11.50
2022-08-29T11:39:24.205Z,12.97
2022-08-29T11:41:58.630Z,10.83
2022-08-29T11:44:31.186Z,10.37
2022-08-29T11:46:58.818Z,9.43
2022-08-29T11:49:46.661Z,11.20
2022-08-29T11:52:22.308Z,10.20
2022-08-29T11:54:54.578Z,8.97
2022-08-29T11:57:21.005Z,11.73
2022-08-29T11:59:56.545Z,8.03
2022-08-29T12:02:31.847Z,9.37
2022-08-29T12:05:16.591Z,11.93
2022-08-29T12:07:49.889Z,10.57
2022-08-29T12:10:25.293Z,8.93
2022-08-29T12:12:53.872Z,10.17
2022-08-29T12:15:29.646Z,11.17
2022-08-29T12:18:03.485Z,10.43
2022-08-29T12:20:30.175Z,8.67
2022-08-29T12:22:56.622Z,9.53
2022-08-29T12:25:44.965Z,10.37
2022-08-29T12:28:40.851Z,12.67
2022-08-29T12:31:13.895Z,9.23
2022-08-29T12:34:05.620Z,8.60
2022-08-29T12:36:53.449Z,8.17
2022-08-29T12:39:22.941Z,7.83
2022-08-29T12:42:01.491Z,9.07
2022-08-29T12:44:34.705Z,8.73
2022-08-29T12:47:07.127Z,12.30
2022-08-29T12:49:53.067Z,9.50
2022-08-29T12:52:32.324Z,8.97
2022-08-29T12:55:19.311Z,7.37
2022-08-29T12:57:47.405Z,7.73
2022-08-29T13:00:21.108Z,6.13
2022-08-29T13:03:14.951Z,9.67
2022-08-29T13:05:42.707Z,9.60
2022-08-29T13:08:26.473Z,8.87
2022-08-29T13:10:59.441Z,8.13
2022-08-29T13:13:27.943Z,9.47
2022-08-29T13:15:57.619Z,10.50
2022-08-29T13:18:24.461Z,8.20
2022-08-29T13:21:26.311Z,8.03
2022-08-29T13:24:16.629Z,7.00
2022-08-29T13:27:03.104Z,10.00
2022-08-29T13:29:40.226Z,7.77
2022-08-29T13:32:23.799Z,4.90
2022-08-29T13:35:15.152Z,6.47
2022-08-29T13:37:44.852Z,7.10
2022-08-29T13:40:37.129Z,7.85
2022-08-29T13:43:06.097Z,6.50
2022-08-29T13:45:34.005Z,7.72
2022-08-29T13:48:20.242Z,5.72
2022-08-29T13:53:19.219Z,7.03
2022-08-29T13:55:45.858Z,4.78
2022-08-29T13:58:14.720Z,6.75
2022-08-29T14:00:41.841Z,5.72
2022-08-29T14:03:09.361Z,5.17
2022-08-29T14:05:36.877Z,7.07
2022-08-29T14:08:05.327Z,5.00
2022-08-29T14:10:31.926Z,5.97
2022-08-29T14:12:58.605Z,6.33
2022-08-29T14:15:25.110Z,7.10
2022-08-29T14:17:52.667Z,6.37
2022-08-29T14:20:19.526Z,4.67
2022-08-29T14:22:47.039Z,4.40
2022-08-29T14:25:16.146Z,4.53
2022-08-29T14:27:43.583Z,7.40
2022-08-29T14:30:12.683Z,5.37
2022-08-29T14:32:39.180Z,5.00
2022-08-29T14:35:07.343Z,5.00
2022-08-29T14:37:34.851Z,4.82
2022-08-29T14:40:02.051Z,4.07
2022-08-29T14:42:30.318Z,2.97
2022-08-29T14:44:56.853Z,5.13
2022-08-29T14:47:23.385Z,4.00
2022-08-29T14:49:49.892Z,4.87
2022-08-29T14:52:16.600Z,2.97
2022-08-29T14:54:43.947Z,4.82
2022-08-29T14:57:12.338Z,2.60
2022-08-29T14:59:39.727Z,3.25
2022-08-29T15:02:10.911Z,3.10
2022-08-29T15:04:38.179Z,3.47
2022-08-29T15:07:10.741Z,3.27
2022-08-29T15:09:38.022Z,3.00
2022-08-29T15:12:05.233Z,2.20
2022-08-29T15:14:32.046Z,2.63
2022-08-29T15:16:58.592Z,3.90
2022-08-29T15:19:53.801Z,4.30
2022-08-29T15:22:12.567Z,2.93
2022-08-29T15:24:39.620Z,2.20
2022-08-29T15:27:06.634Z,2.33
2022-08-29T15:29:34.044Z,3.30
2022-08-29T15:32:00.554Z,3.22
2022-08-29T15:34:29.251Z,3.55
2022-08-29T15:36:56.800Z,3.20
2022-08-29T15:39:27.938Z,3.60
2022-08-29T15:41:55.937Z,2.17
2022-08-29T15:44:22.626Z,2.33
2022-08-29T15:46:50.780Z,2.43
2022-08-29T15:49:19.185Z,4.07
2022-08-29T15:51:46.192Z,3.23
2022-08-29T15:54:13.638Z,1.83
2022-08-29T15:56:40.810Z,2.10
2022-08-29T15:59:17.035Z,2.10
2022-08-29T16:01:50.928Z,2.40
2022-08-29T16:04:20.628Z,4.22
2022-08-29T16:06:47.318Z,2.35
2022-08-29T16:09:15.962Z,4.20
2022-08-29T16:11:44.425Z,2.00
2022-08-29T16:16:58.618Z,2.13
2022-08-29T16:19:25.110Z,3.88
2022-08-29T16:21:53.225Z,3.75
2022-08-29T16:24:21.720Z,2.80
2022-08-29T16:26:48.370Z,2.17
2022-08-29T16:29:14.849Z,2.45
2022-08-29T16:31:48.092Z,3.35
2022-08-29T16:34:14.688Z,2.90
2022-08-29T16:36:42.603Z,3.30
2022-08-29T16:39:09.709Z,2.00
2022-08-29T16:41:36.443Z,3.85
2022-08-29T16:44:05.020Z,2.40
2022-08-29T16:46:32.080Z,2.63
2022-08-29T16:48:58.581Z,3.40
2022-08-29T16:51:27.059Z,2.70
2022-08-29T16:53:54.427Z,1.73
2022-08-29T16:56:21.429Z,3.20
2022-08-29T16:59:00.274Z,1.97
2022-08-29T17:01:33.790Z,2.83
2022-08-29T17:04:02.691Z,2.27
2022-08-29T17:06:31.321Z,3.83
2022-08-29T17:08:58.874Z,2.37
2022-08-29T17:11:25.626Z,2.60
2022-08-29T17:13:54.251Z,2.47
2022-08-29T17:16:21.352Z,2.93
2022-08-29T17:18:48.505Z,2.23
2022-08-29T17:21:15.811Z,3.73
2022-08-29T17:23:43.374Z,3.03
2022-08-29T17:26:12.780Z,2.43
2022-08-29T17:28:40.730Z,3.47
2022-08-29T17:31:08.128Z,1.77
2022-08-29T17:33:34.771Z,1.80
2022-08-29T17:36:02.932Z,1.40
2022-08-29T17:38:31.032Z,1.93
2022-08-29T17:40:59.996Z,1.73
2022-08-29T17:43:27.887Z,1.43
2022-08-29T17:45:55.413Z,2.37
2022-08-29T17:48:22.537Z,4.80
2022-08-29T17:50:49.991Z,2.13
2022-08-29T17:53:18.407Z,1.67
2022-08-29T17:55:46.033Z,1.37
2022-08-29T17:58:14.583Z,4.67
2022-08-29T18:00:41.671Z,1.67
2022-08-29T18:03:08.220Z,2.80
2022-08-29T18:05:34.815Z,2.83
2022-08-29T18:08:03.264Z,2.60
2022-08-29T18:10:29.910Z,2.77
2022-08-29T18:12:56.944Z,1.40
2022-08-29T18:15:23.578Z,2.90
2022-08-29T18:17:51.564Z,2.50
2022-08-29T18:20:21.515Z,3.20
2022-08-29T18:22:49.688Z,1.80
2022-08-29T18:25:17.218Z,3.23
2022-08-29T18:27:50.192Z,2.87
2022-08-29T18:30:17.083Z,1.30
2022-08-29T18:32:43.854Z,1.73
2022-08-29T18:35:11.750Z,1.60
2022-08-29T18:37:38.623Z,2.33
2022-08-29T18:40:07.556Z,3.10
2022-08-29T18:42:40.784Z,3.27
2022-08-29T18:45:09.494Z,2.20
2022-08-29T18:47:36.733Z,2.13
2022-08-29T18:50:24.959Z,2.93
2022-08-29T18:52:52.546Z,1.53
2022-08-29T18:55:23.339Z,2.03
2022-08-29T18:57:51.138Z,1.67
2022-08-29T19:00:21.262Z,2.90
2022-08-29T19:02:48.885Z,2.60
2022-08-29T19:05:17.147Z,1.37
2022-08-29T19:07:43.732Z,1.20
2022-08-29T19:10:12.790Z,2.73
2022-08-29T19:12:39.672Z,1.57
2022-08-29T19:15:08.136Z,3.20
2022-08-29T19:17:35.889Z,2.50
2022-08-29T19:20:21.081Z,2.03
2022-08-29T19:22:47.682Z,2.20
2022-08-29T19:25:14.542Z,2.27
2022-08-29T19:27:44.087Z,2.83
2022-08-29T19:30:38.155Z,2.73
2022-08-29T19:33:06.424Z,1.60
2022-08-29T19:35:33.084Z,1.70
2022-08-29T19:37:59.861Z,2.23
2022-08-29T19:40:27.203Z,2.40
2022-08-29T19:42:55.738Z,2.57
2022-08-29T19:45:23.727Z,2.03
2022-08-29T19:47:52.164Z,3.00
2022-08-29T19:50:21.202Z,2.93
2022-08-29T19:52:48.204Z,1.77
2022-08-29T19:55:17.751Z,2.00
2022-08-29T19:57:47.342Z,2.13
2022-08-29T20:00:17.283Z,2.47
2022-08-29T20:02:45.876Z,2.37
2022-08-29T20:05:13.738Z,3.37
2022-08-29T20:07:42.061Z,2.17
2022-08-29T20:10:10.125Z,4.67
2022-08-29T20:12:36.957Z,2.53
2022-08-29T20:15:05.817Z,2.43
2022-08-29T20:17:34.437Z,3.37
2022-08-29T20:20:12.287Z,2.40
2022-08-29T20:22:38.903Z,3.23
2022-08-29T20:25:06.995Z,3.53
2022-08-29T20:27:34.794Z,5.40
2022-08-29T20:30:03.395Z,3.87
2022-08-29T20:32:30.440Z,3.20
2022-08-29T20:34:57.048Z,5.17
2022-08-29T20:37:25.818Z,3.57
2022-08-29T20:39:53.208Z,3.10
2022-08-29T20:42:22.225Z,4.27
2022-08-29T20:44:48.718Z,2.93
2022-08-29T20:47:20.022Z,2.17
2022-08-29T20:49:48.255Z,3.07
2022-08-29T20:52:18.505Z,2.03
2022-08-29T20:54:46.255Z,2.20
2022-08-29T20:57:14.773Z,4.17
2022-08-29T20:59:42.940Z,3.10
2022-08-29T21:02:10.008Z,2.23
2022-08-29T21:04:56.038Z,2.57
2022-08-29T21:07:22.871Z,2.03
2022-08-29T21:09:50.403Z,2.47
2022-08-29T21:12:18.609Z,3.23
2022-08-29T21:14:45.114Z,2.53
2022-08-29T21:17:18.082Z,5.40
2022-08-29T21:19:45.362Z,2.73
2022-08-29T21:22:13.564Z,2.50
2022-08-29T21:24:40.955Z,2.70
2022-08-29T21:27:07.592Z,2.60
2022-08-29T21:29:34.331Z,2.00
2022-08-29T21:32:00.940Z,1.90
2022-08-29T21:34:27.401Z,5.27
2022-08-29T21:36:54.478Z,3.87
2022-08-29T21:39:27.956Z,2.07
2022-08-29T21:42:02.968Z,1.60
2022-08-29T21:44:30.361Z,3.20
2022-08-29T21:47:03.148Z,1.90
2022-08-29T21:49:32.572Z,3.90
2022-08-29T21:51:59.333Z,2.90
2022-08-29T21:54:26.675Z,2.40
2022-08-29T21:56:53.586Z,4.23
2022-08-29T21:59:21.577Z,1.90
2022-08-29T22:01:52.732Z,2.10
2022-08-29T22:04:28.528Z,2.27
2022-08-29T22:06:57.400Z,1.80
2022-08-29T22:09:23.954Z,3.10
2022-08-29T22:11:52.046Z,1.87
2022-08-29T22:14:43.240Z,3.13
2022-08-29T22:17:11.284Z,1.93
2022-08-29T22:19:37.781Z,3.60
2022-08-29T22:22:06.385Z,2.57
2022-08-29T22:24:33.308Z,3.10
2022-08-29T22:26:59.931Z,2.97
2022-08-29T22:29:26.418Z,2.07
2022-08-29T22:31:53.292Z,1.43
2022-08-29T22:34:19.828Z,2.27
2022-08-29T22:36:46.366Z,2.50
2022-08-29T22:39:13.296Z,2.00
2022-08-29T22:41:44.195Z,1.47
2022-08-29T22:44:59.593Z,3.67
2022-08-29T22:47:00.497Z,2.53
2022-08-29T22:49:33.357Z,2.43
2022-08-29T22:52:00.331Z,1.60
2022-08-29T22:54:36.511Z,3.47
2022-08-29T22:57:05.798Z,3.23
2022-08-29T22:59:33.390Z,1.90
2022-08-29T23:02:01.323Z,3.07
2022-08-29T23:04:29.476Z,2.20
2022-08-29T23:06:56.061Z,1.97
2022-08-29T23:09:22.654Z,1.87
2022-08-29T23:11:50.320Z,3.23
2022-08-29T23:14:20.541Z,2.00
2022-08-29T23:16:48.641Z,4.40
2022-08-29T23:19:15.207Z,1.90
2022-08-29T23:21:43.250Z,2.63
2022-08-29T23:24:10.013Z,1.93
2022-08-29T23:26:36.971Z,2.03
2022-08-29T23:29:04.069Z,2.37
2022-08-29T23:31:30.670Z,3.50
2022-08-29T23:33:57.254Z,2.63
2022-08-29T23:36:23.777Z,1.50
2022-08-29T23:38:52.731Z,1.83
2022-08-29T23:41:19.629Z,2.10
2022-08-29T23:43:46.492Z,3.70
2022-08-29T23:46:13.950Z,5.67
2022-08-29T23:48:40.926Z,2.60
2022-08-29T23:51:12.242Z,2.70
2022-08-29T23:53:38.739Z,1.93
2022-08-29T23:56:14.121Z,2.00
2022-08-29T23:58:42.115Z,2.87
